Time;durP1;ratioP1;P1;durP2;ratioP2;P2;SDS_P1;SDS_P2;PMS_P1;PMS_P2;Temp;Humidity;BMP_temperature;BMP_pressure;BME280_temperature;BME280_humidity;BME280_pressure;Samples;Min_cycle;Max_cycle;Signal;HPM_P1;HPM_P2
2022/08/21 00:02:18;;;;;;;60.33;42.55;;;;;;;18.12;100.00;99882.94;10415375;28;20445;-66
2022/08/21 00:07:20;;;;;;;50.33;43.13;;;;;;;18.04;100.00;99901.22;10423498;28;20061;-67
2022/08/21 00:12:22;;;;;;;54.65;41.10;;;;;;;18.29;100.00;99897.81;10422958;28;20037;-66
2022/08/21 00:17:24;;;;;;;53.13;42.55;;;;;;;18.37;100.00;99876.00;10422832;28;20042;-67
2022/08/21 00:22:26;;;;;;;56.05;44.42;;;;;;;18.24;100.00;99883.97;10422541;28;20038;-67
2022/08/21 00:27:27;;;;;;;64.65;46.15;;;;;;;18.01;100.00;99880.13;10422216;28;20057;-67
2022/08/21 00:32:29;;;;;;;66.60;48.40;;;;;;;17.84;100.00;99880.34;10422451;28;20041;-67
2022/08/21 00:37:31;;;;;;;61.63;46.95;;;;;;;17.85;100.00;99884.75;10421983;28;20072;-67
2022/08/21 00:42:36;;;;;;;51.65;42.65;;;;;;;17.95;100.00;99880.53;10422150;28;20045;-67
2022/08/21 00:47:38;;;;;;;64.07;48.67;;;;;;;17.91;100.00;99884.34;10421170;28;20048;-66
2022/08/21 00:52:41;;;;;;;70.75;49.28;;;;;;;17.89;100.00;99889.75;10422491;28;20042;-66
2022/08/21 00:57:50;;;;;;;67.05;49.42;;;;;;;17.95;100.00;99885.00;10421337;28;20045;-66
2022/08/21 01:02:52;;;;;;;73.25;49.53;;;;;;;17.86;100.00;99887.28;10420865;28;20121;-67
2022/08/21 01:07:56;;;;;;;63.15;48.20;;;;;;;18.21;100.00;99881.50;10420895;28;20112;-67
2022/08/21 01:12:58;;;;;;;73.47;53.70;;;;;;;18.09;100.00;99901.75;10421490;28;20081;-67
2022/08/21 01:18:04;;;;;;;63.53;46.88;;;;;;;18.02;100.00;99902.28;10419320;28;20060;-66
2022/08/21 01:23:06;;;;;;;43.80;34.10;;;;;;;18.02;100.00;99908.44;10421456;28;20037;-67
2022/08/21 01:28:13;;;;;;;25.08;22.65;;;;;;;17.82;100.00;99909.69;10419397;28;20049;-67
2022/08/21 01:33:15;;;;;;;17.05;15.85;;;;;;;17.73;100.00;99914.72;10420589;28;20049;-67
2022/08/21 01:38:17;;;;;;;9.55;8.95;;;;;;;17.89;100.00;99904.88;10419873;28;20069;-66
2022/08/21 01:43:19;;;;;;;10.40;9.70;;;;;;;17.62;100.00;99912.75;10419887;28;20069;-66
2022/08/21 01:48:26;;;;;;;12.90;12.00;;;;;;;17.68;100.00;99908.84;10419435;28;20049;-66
2022/08/21 01:53:28;;;;;;;13.07;12.27;;;;;;;17.77;100.00;99910.97;10419750;28;20433;-66
2022/08/21 01:58:34;;;;;;;12.30;11.50;;;;;;;17.87;100.00;99917.38;10419569;28;20121;-66
2022/08/21 02:03:37;;;;;;;13.15;12.18;;;;;;;17.76;100.00;99917.22;10418674;28;20033;-67
2022/08/21 02:08:38;;;;;;;12.38;11.63;;;;;;;17.61;100.00;99906.56;10419059;28;20049;-66
2022/08/21 02:13:40;;;;;;;11.77;11.05;;;;;;;17.72;100.00;99907.72;10418185;28;20095;-66
2022/08/21 02:18:43;;;;;;;12.57;11.88;;;;;;;17.73;100.00;99898.78;10418030;28;20069;-66
2022/08/21 02:23:45;;;;;;;13.57;12.70;;;;;;;17.45;100.00;99900.50;10418137;28;20038;-66
2022/08/21 02:28:47;;;;;;;15.02;14.02;;;;;;;17.40;100.00;99898.16;10417543;28;20049;-67
2022/08/21 02:33:49;;;;;;;16.00;15.00;;;;;;;17.57;100.00;99890.91;10417393;28;20033;-67
2022/08/21 02:38:51;;;;;;;16.42;15.32;;;;;;;17.67;100.00;99894.72;10418491;28;20041;-66
2022/08/21 02:43:52;;;;;;;15.80;14.80;;;;;;;17.76;100.00;99891.50;10416922;28;20099;-67
2022/08/21 02:48:54;;;;;;;16.60;15.43;;;;;;;17.64;100.00;99886.91;10416721;28;20041;-67
2022/08/21 02:53:56;;;;;;;15.85;14.95;;;;;;;17.68;100.00;99884.94;10416793;28;20041;-67
2022/08/21 02:58:57;;;;;;;15.95;15.05;;;;;;;17.80;100.00;99871.75;10416500;28;20129;-67
2022/08/21 03:03:59;;;;;;;15.88;14.88;;;;;;;17.61;100.00;99879.13;10416205;28;20045;-67
2022/08/21 03:09:00;;;;;;;17.73;16.63;;;;;;;17.68;100.00;99872.47;10416125;28;20045;-67
2022/08/21 03:14:02;;;;;;;16.52;15.52;;;;;;;17.52;100.00;99874.41;10415923;28;20041;-67
2022/08/21 03:19:04;;;;;;;15.90;14.98;;;;;;;17.44;100.00;99874.03;10415827;28;20052;-67
2022/08/21 03:24:06;;;;;;;20.48;19.13;;;;;;;17.50;100.00;99876.31;10414124;28;20566;-67
2022/08/21 03:29:08;;;;;;;19.88;18.60;;;;;;;17.61;100.00;99879.97;10416060;28;20045;-67
2022/08/21 03:34:10;;;;;;;20.38;18.90;;;;;;;17.46;100.00;99882.75;10415257;28;20042;-67
2022/08/21 03:39:12;;;;;;;21.80;20.40;;;;;;;17.40;100.00;99891.97;10414720;28;20491;-67
2022/08/21 03:44:13;;;;;;;25.95;23.95;;;;;;;17.39;100.00;99898.22;10416479;28;20046;-67
2022/08/21 03:49:15;;;;;;;22.58;20.98;;;;;;;17.50;100.00;99898.41;10415022;28;20046;-67
2022/08/21 03:54:18;;;;;;;23.55;21.95;;;;;;;17.56;100.00;99906.00;10415078;28;20037;-67
2022/08/21 03:59:19;;;;;;;20.17;18.77;;;;;;;17.54;100.00;99907.06;10415009;28;20045;-67
2022/08/21 04:04:21;;;;;;;21.65;20.23;;;;;;;17.58;100.00;99906.78;10415047;28;20042;-67
2022/08/21 04:09:24;;;;;;;20.40;19.10;;;;;;;17.58;100.00;99906.78;10414854;28;20136;-67
2022/08/21 04:14:26;;;;;;;21.98;20.48;;;;;;;17.60;100.00;99904.00;10414688;28;20147;-67
2022/08/21 04:19:28;;;;;;;23.08;21.58;;;;;;;17.46;100.00;99902.22;10414602;28;20050;-67
2022/08/21 04:24:30;;;;;;;23.63;22.02;;;;;;;17.40;100.00;99903.47;10414264;28;20045;-67
2022/08/21 04:29:32;;;;;;;24.75;23.05;;;;;;;17.40;100.00;99913.25;10414846;28;20056;-67
2022/08/21 04:34:38;;;;;;;25.73;23.67;;;;;;;17.37;100.00;99905.44;10414105;28;20510;-67
2022/08/21 04:39:40;;;;;;;24.10;22.45;;;;;;;17.72;100.00;99902.38;10415319;28;20046;-67
2022/08/21 04:44:42;;;;;;;22.30;20.80;;;;;;;17.75;100.00;99912.84;10413679;28;20044;-67
2022/08/21 04:49:44;;;;;;;22.60;21.10;;;;;;;17.58;100.00;99914.75;10416031;28;20503;-67
2022/08/21 04:54:47;;;;;;;22.25;20.80;;;;;;;17.55;100.00;99916.72;10421817;28;20045;-67
2022/08/21 04:59:55;;;;;;;23.13;21.63;;;;;;;17.72;100.00;99918.34;10421367;28;20111;-67
2022/08/21 05:04:57;;;;;;;25.40;23.80;;;;;;;17.84;100.00;99912.25;10420991;28;20099;-67
2022/08/21 05:10:00;;;;;;;28.05;26.08;;;;;;;17.74;100.00;99919.97;10419738;28;20054;-67
2022/08/21 05:15:03;;;;;;;26.08;24.10;;;;;;;17.85;100.00;99924.63;10420661;28;20045;-67
2022/08/21 05:20:05;;;;;;;29.27;26.45;;;;;;;17.97;100.00;99913.19;10420689;28;20041;-67
2022/08/21 05:25:09;;;;;;;31.50;28.83;;;;;;;17.98;100.00;99914.06;10420338;28;20042;-67
2022/08/21 05:30:11;;;;;;;36.97;33.72;;;;;;;18.00;100.00;99917.47;10421082;28;20049;-67
2022/08/21 05:35:13;;;;;;;33.78;31.23;;;;;;;18.02;100.00;99924.41;10419847;28;20037;-67
2022/08/21 05:40:15;;;;;;;34.60;31.25;;;;;;;18.12;100.00;99925.50;10419723;28;20407;-67
2022/08/21 05:50:47;;;;;;;35.83;32.38;;;;;;;18.07;100.00;99921.44;10461414;28;20056;-69
2022/08/21 05:55:49;;;;;;;32.17;29.23;;;;;;;18.13;100.00;99921.03;10465001;28;20045;-70
2022/08/21 06:00:52;;;;;;;24.38;22.88;;;;;;;18.31;100.00;99922.50;10462527;28;20512;-69
2022/08/21 06:05:55;;;;;;;26.77;24.92;;;;;;;18.43;100.00;99930.63;10444531;28;20041;-70
2022/08/21 06:10:59;;;;;;;25.85;24.00;;;;;;;18.48;100.00;99929.38;10460774;28;20044;-69
2022/08/21 06:16:13;;;;;;;25.25;23.23;;;;;;;18.38;100.00;99938.94;10442474;28;20096;-70
2022/08/21 06:21:17;;;;;;;23.80;22.30;;;;;;;18.39;100.00;99941.47;10462352;28;20040;-70
2022/08/21 06:26:19;;;;;;;22.80;21.38;;;;;;;18.29;100.00;99952.84;10463168;28;20049;-70
2022/08/21 06:31:24;;;;;;;20.73;19.52;;;;;;;18.29;100.00;99939.53;10462387;28;20116;-69
2022/08/21 06:36:26;;;;;;;19.35;18.17;;;;;;;18.54;100.00;99942.25;10461485;28;20041;-70
2022/08/21 06:41:27;;;;;;;21.80;20.40;;;;;;;18.37;100.00;99931.88;10461106;28;20041;-69
2022/08/21 06:46:30;;;;;;;21.98;20.75;;;;;;;18.52;100.00;99930.88;10463503;28;20150;-70
2022/08/21 06:51:32;;;;;;;20.88;19.58;;;;;;;18.70;100.00;99922.66;10443684;28;20537;-70
2022/08/21 06:56:36;;;;;;;21.50;20.20;;;;;;;18.84;100.00;99931.41;10461542;28;20040;-70
2022/08/21 07:01:39;;;;;;;21.45;20.00;;;;;;;18.93;100.00;99934.41;10462306;28;20045;-70
2022/08/21 07:06:40;;;;;;;19.58;18.38;;;;;;;18.88;100.00;99934.72;10461728;28;20105;-70
2022/08/21 07:11:48;;;;;;;22.10;20.40;;;;;;;18.90;100.00;99930.13;10460416;28;20451;-70
2022/08/21 07:16:51;;;;;;;20.70;19.50;;;;;;;18.94;100.00;99931.63;10460023;28;20127;-70
2022/08/21 07:21:58;;;;;;;20.27;18.98;;;;;;;19.08;100.00;99934.22;10443460;28;20045;-70
2022/08/21 07:26:59;;;;;;;20.13;18.90;;;;;;;19.03;100.00;99930.16;10459760;28;20041;-70
2022/08/21 07:32:01;;;;;;;20.05;18.85;;;;;;;18.93;100.00;99926.41;10443200;28;20044;-70
2022/08/21 07:37:03;;;;;;;19.67;18.33;;;;;;;19.19;100.00;99925.50;10445608;28;20160;-70
2022/08/21 07:42:10;;;;;;;19.67;18.50;;;;;;;19.21;100.00;99936.03;10398840;28;20080;-70
2022/08/21 07:47:12;;;;;;;19.67;18.17;;;;;;;19.35;100.00;99946.59;10398948;28;20045;-70
2022/08/21 07:52:13;;;;;;;19.13;17.88;;;;;;;19.12;100.00;99956.16;10401022;28;20041;-70
2022/08/21 07:57:15;;;;;;;19.25;17.95;;;;;;;19.19;100.00;99946.81;10417016;28;20037;-70
2022/08/21 08:02:27;;;;;;;20.00;18.60;;;;;;;18.93;100.00;99966.38;10416541;28;20044;-70
2022/08/21 08:07:29;;;;;;;17.00;15.90;;;;;;;19.09;100.00;99959.06;10399740;28;20514;-70
2022/08/21 08:12:31;;;;;;;15.98;14.77;;;;;;;19.08;100.00;99965.31;10416643;28;20042;-70
2022/08/21 08:17:33;;;;;;;17.00;15.90;;;;;;;18.94;100.00;99968.94;10419016;28;20041;-70
2022/08/21 08:22:37;;;;;;;16.08;15.07;;;;;;;19.12;100.00;99965.03;10417249;28;20045;-71
2022/08/21 08:27:39;;;;;;;14.65;13.85;;;;;;;19.34;100.00;99972.38;10425194;28;20045;-70
2022/08/21 08:32:41;;;;;;;15.00;14.15;;;;;;;19.28;100.00;99967.50;10423797;28;20125;-70
2022/08/21 08:37:45;;;;;;;11.93;11.13;;;;;;;19.38;100.00;99968.56;10408374;28;20072;-70
2022/08/21 08:42:53;;;;;;;14.00;13.10;;;;;;;19.75;100.00;99962.50;10424427;28;20077;-70
2022/08/21 08:48:03;;;;;;;12.07;11.20;;;;;;;19.66;99.11;99972.00;10391820;28;20077;-71
2022/08/21 08:53:11;;;;;;;10.95;10.10;;;;;;;19.44;100.00;99975.28;10424458;28;20045;-71
2022/08/21 08:58:23;;;;;;;11.00;10.38;;;;;;;19.69;100.00;99981.59;10425240;28;20132;-71
2022/08/21 09:03:27;;;;;;;10.63;9.68;;;;;;;19.62;100.00;99970.50;10423507;28;20042;-71
2022/08/21 09:09:02;;;;;;;8.00;7.45;;;;;;;19.99;95.20;99984.75;10423169;28;20037;-71
2022/08/21 09:15:02;;;;;;;8.60;7.90;;;;;;;20.14;94.03;99975.66;10423123;28;20051;-70
2022/08/21 09:20:13;;;;;;;6.55;6.05;;;;;;;20.20;91.09;99971.69;10291144;28;20118;-69
2022/08/21 09:25:23;;;;;;;8.23;5.95;;;;;;;20.19;88.28;99959.31;10295252;28;20413;-70
2022/08/21 09:30:30;;;;;;;5.38;4.90;;;;;;;20.22;85.40;99951.06;10281714;28;20050;-71
2022/08/21 09:35:34;;;;;;;4.68;4.03;;;;;;;20.19;84.69;99950.41;10278645;28;20039;-71
2022/08/21 09:40:42;;;;;;;9.30;4.47;;;;;;;20.44;72.22;99952.16;10279274;28;20278;-71
2022/08/21 09:45:46;;;;;;;12.27;3.78;;;;;;;20.26;80.14;99954.38;10296547;28;20073;-71
2022/08/21 09:50:50;;;;;;;5.82;3.80;;;;;;;20.43;78.43;99953.97;10317933;28;20080;-71
2022/08/21 10:01:44;;;;;;;4.80;3.90;;;;;;;20.84;70.19;99948.22;10419752;28;20044;-71
2022/08/21 10:06:45;;;;;;;4.95;2.90;;;;;;;20.73;73.17;99950.88;10422253;28;20042;-71
2022/08/21 10:12:13;;;;;;;4.10;2.30;;;;;;;20.46;71.68;99948.41;10419516;28;20046;-71
2022/08/21 10:17:27;;;;;;;3.53;2.60;;;;;;;20.71;69.40;99949.28;10401850;28;20064;-71
2022/08/21 10:22:44;;;;;;;4.30;2.28;;;;;;;20.88;68.00;99943.50;10419924;28;20037;-71
2022/08/21 10:28:02;;;;;;;5.80;2.60;;;;;;;20.75;70.81;99953.41;10420628;28;20411;-71
2022/08/21 10:33:32;;;;;;;3.25;2.08;;;;;;;20.91;67.86;99953.97;10419670;28;20045;-70
2022/08/21 10:38:37;;;;;;;4.85;2.58;;;;;;;21.05;68.48;99958.25;10419414;28;20067;-70
2022/08/21 10:44:04;;;;;;;5.22;2.53;;;;;;;20.73;67.42;99955.38;10403427;28;20033;-70
2022/08/21 10:49:22;;;;;;;5.88;2.78;;;;;;;21.15;68.54;99948.56;10402579;28;20046;-71
2022/08/21 10:54:59;;;;;;;4.18;2.22;;;;;;;21.09;64.83;99949.03;10418408;28;20060;-71
2022/08/21 11:00:13;;;;;;;3.55;1.83;;;;;;;21.10;65.58;99942.72;10407683;28;20148;-71
2022/08/21 11:05:20;;;;;;;4.90;2.72;;;;;;;21.47;62.76;99950.59;10417857;28;20449;-71
2022/08/21 11:10:29;;;;;;;3.97;2.00;;;;;;;21.69;62.17;99953.25;10430106;28;20073;-71
2022/08/21 11:15:47;;;;;;;3.90;1.52;;;;;;;21.75;60.67;99951.94;10401506;28;20069;-71
2022/08/21 11:21:27;;;;;;;2.63;1.33;;;;;;;21.79;59.56;99948.06;10400233;28;20507;-71
2022/08/21 11:26:38;;;;;;;4.72;1.80;;;;;;;21.83;57.56;99953.03;10399887;28;20041;-71
2022/08/21 11:32:07;;;;;;;4.28;2.03;;;;;;;22.35;56.98;99953.34;10418127;28;20044;-71
2022/08/21 11:37:30;;;;;;;2.58;1.30;;;;;;;22.57;52.47;99950.59;10417128;28;20041;-71
2022/08/21 11:42:47;;;;;;;3.28;1.33;;;;;;;22.49;54.29;99950.41;10416669;28;20042;-71
2022/08/21 11:47:55;;;;;;;2.20;1.10;;;;;;;22.36;50.97;99947.03;10417573;22;20137;-68
2022/08/21 11:53:34;;;;;;;2.60;1.13;;;;;;;22.84;49.81;99943.91;10373829;28;20145;-69
2022/08/21 11:58:47;;;;;;;3.88;1.70;;;;;;;22.76;53.61;99933.00;10333300;28;20054;-69
2022/08/21 12:04:01;;;;;;;4.05;1.27;;;;;;;23.24;50.46;99935.16;10315620;28;20555;-69
2022/08/21 12:09:09;;;;;;;3.08;1.38;;;;;;;23.37;50.37;99934.00;10333093;28;20050;-69
2022/08/21 12:14:15;;;;;;;6.55;1.33;;;;;;;23.54;50.16;99932.50;10332927;28;20072;-69
2022/08/21 12:19:20;;;;;;;3.25;1.30;;;;;;;24.15;45.91;99924.41;10333067;28;20053;-69
2022/08/21 12:24:27;;;;;;;5.95;1.95;;;;;;;24.54;47.02;99931.72;10332619;28;20100;-69
2022/08/21 12:29:37;;;;;;;4.40;1.60;;;;;;;24.48;48.63;99925.09;10315538;28;20484;-69
2022/08/21 12:34:45;;;;;;;2.55;1.20;;;;;;;24.46;47.38;99916.28;10334588;28;20436;-68
2022/08/21 12:39:51;;;;;;;4.43;1.35;;;;;;;24.55;45.77;99922.66;10333257;28;20046;-69
2022/08/21 12:44:58;;;;;;;3.25;1.23;;;;;;;24.86;45.62;99912.59;10333238;28;20492;-68
2022/08/21 12:50:11;;;;;;;3.25;1.23;;;;;;;24.55;44.39;99918.13;10332501;28;20235;-69
2022/08/21 12:55:17;;;;;;;5.20;1.30;;;;;;;23.78;47.67;99913.44;10332838;28;20059;-69
2022/08/21 13:00:24;;;;;;;4.88;1.33;;;;;;;23.70;50.67;99912.44;10333082;28;20042;-71
2022/08/21 13:05:37;;;;;;;2.83;1.30;;;;;;;23.63;48.12;99907.56;10330992;28;20122;-69
2022/08/21 13:10:40;;;;;;;4.43;1.38;;;;;;;23.04;48.15;99910.94;10333483;28;20132;-69
2022/08/21 13:15:42;;;;;;;3.60;1.35;;;;;;;22.75;49.96;99908.00;10339157;28;20070;-70
2022/08/21 13:20:49;;;;;;;3.92;1.40;;;;;;;22.99;51.92;99899.75;10339673;28;20097;-68
2022/08/21 13:25:53;;;;;;;3.60;1.20;;;;;;;23.18;49.90;99901.69;10338680;28;20077;-69
2022/08/21 13:30:55;;;;;;;3.53;1.17;;;;;;;22.94;48.90;99893.94;10338260;28;20042;-68
2022/08/21 13:36:00;;;;;;;5.32;1.23;;;;;;;23.06;49.66;99898.22;10338226;28;20039;-69
2022/08/21 13:41:13;;;;;;;6.35;1.35;;;;;;;23.35;48.26;99902.91;10321091;28;20096;-69
2022/08/21 13:46:15;;;;;;;4.65;1.60;;;;;;;23.13;50.13;99901.25;10338075;28;20365;-69
2022/08/21 13:51:17;;;;;;;4.05;1.33;;;;;;;23.63;48.22;99901.34;10337860;28;20046;-69
2022/08/21 13:56:31;;;;;;;2.50;1.02;;;;;;;24.05;44.58;99907.44;10337850;28;20046;-69
2022/08/21 14:01:39;;;;;;;2.83;1.30;;;;;;;23.57;46.46;99900.06;10320073;28;20458;-69
2022/08/21 14:06:41;;;;;;;2.85;1.05;;;;;;;23.24;46.11;99890.47;10337243;28;20043;-69
2022/08/21 14:11:43;;;;;;;2.95;1.10;;;;;;;23.16;47.41;99895.63;10337092;28;20052;-69
2022/08/21 14:16:52;;;;;;;3.88;1.30;;;;;;;23.34;46.40;99895.88;10336878;28;20530;-69
2022/08/21 14:21:54;;;;;;;5.30;1.15;;;;;;;23.06;46.29;99895.56;10336510;28;20455;-69
2022/08/21 14:27:06;;;;;;;2.55;0.95;;;;;;;22.88;45.26;99899.78;10336424;28;20479;-69
2022/08/21 14:32:30;;;;;;;3.15;1.30;;;;;;;22.99;48.87;99896.22;10336833;28;20408;-67
2022/08/21 14:37:34;;;;;;;4.38;0.90;;;;;;;22.59;46.93;99889.72;10335979;28;20050;-67
2022/08/21 14:42:35;;;;;;;3.20;1.20;;;;;;;22.63;46.31;99892.97;10335536;28;20042;-67
2022/08/21 14:47:40;;;;;;;3.40;1.02;;;;;;;22.52;45.63;99893.88;10335743;28;20124;-67
2022/08/21 14:52:42;;;;;;;4.35;1.10;;;;;;;22.43;45.11;99894.63;10335554;28;20045;-67
2022/08/21 14:57:48;;;;;;;3.55;1.00;;;;;;;22.66;46.75;99895.38;10317594;28;20050;-67
2022/08/21 15:02:50;;;;;;;2.00;1.02;;;;;;;22.37;46.05;99897.84;10335359;28;20045;-67
2022/08/21 15:07:52;;;;;;;3.15;1.00;;;;;;;22.36;45.35;99894.31;10317365;28;20433;-67
2022/08/21 15:12:54;;;;;;;3.10;0.93;;;;;;;22.04;48.48;99888.88;10335892;28;20064;-67
2022/08/21 15:17:55;;;;;;;3.85;1.10;;;;;;;21.98;47.07;99896.56;10334287;28;20129;-67
2022/08/21 15:22:57;;;;;;;5.35;1.25;;;;;;;22.04;44.25;99893.38;10335222;28;20053;-67
2022/08/21 15:28:00;;;;;;;1.85;1.00;;;;;;;21.97;46.27;99894.88;10333979;28;20092;-67
2022/08/21 15:33:01;;;;;;;2.60;1.23;;;;;;;21.69;46.73;99888.22;10333422;28;20042;-67
2022/08/21 15:38:03;;;;;;;4.47;1.10;;;;;;;21.89;47.34;99885.63;10333719;28;20478;-67
2022/08/21 15:43:05;;;;;;;2.83;1.20;;;;;;;21.90;50.38;99891.84;10333906;28;20049;-67
2022/08/21 15:48:07;;;;;;;1.77;1.00;;;;;;;21.95;49.32;99894.97;10316059;28;20046;-67
2022/08/21 15:53:08;;;;;;;2.47;1.38;;;;;;;22.07;47.88;99888.63;10333992;28;20047;-67
2022/08/21 15:58:15;;;;;;;3.30;1.20;;;;;;;21.94;47.80;99885.25;10333890;28;20129;-66
2022/08/21 16:03:21;;;;;;;2.50;1.10;;;;;;;21.93;49.69;99883.56;10333179;28;20053;-66
2022/08/21 16:08:23;;;;;;;;;;;;;;;21.74;51.08;99880.69;10334439;28;20043;-66
2022/08/21 16:13:36;;;;;;;2.95;1.38;;;;;;;21.41;53.74;99877.91;10333230;28;20302;-66
2022/08/21 16:18:39;;;;;;;3.22;1.20;;;;;;;21.23;52.21;99882.00;10333586;28;20045;-66
2022/08/21 16:23:41;;;;;;;4.30;1.90;;;;;;;21.00;53.45;99877.59;10333019;28;20054;-66
2022/08/21 16:28:45;;;;;;;2.70;1.52;;;;;;;20.89;53.62;99879.28;10333410;28;20121;-66
2022/08/21 16:33:53;;;;;;;2.95;1.20;;;;;;;21.07;52.29;99885.03;10332909;28;20037;-66
2022/08/21 16:38:59;;;;;;;2.97;1.40;;;;;;;21.13;51.84;99875.69;10332741;28;20077;-65
2022/08/21 16:44:02;;;;;;;4.70;1.05;;;;;;;21.20;50.51;99886.72;10315793;28;20043;-66
2022/08/21 16:49:04;;;;;;;2.28;1.45;;;;;;;20.79;54.00;99869.41;10340294;28;20038;-66
2022/08/21 16:54:06;;;;;;;2.55;1.35;;;;;;;20.49;54.94;99872.59;10340186;28;20046;-66
2022/08/21 16:59:10;;;;;;;1.80;1.05;;;;;;;20.32;55.89;99868.47;10340367;28;20046;-66
2022/08/21 17:04:12;;;;;;;2.25;1.05;;;;;;;20.14;58.24;99870.69;10340045;28;20042;-67
2022/08/21 17:09:13;;;;;;;2.53;1.50;;;;;;;20.13;56.86;99874.34;10339610;28;20452;-67
2022/08/21 17:14:22;;;;;;;2.85;1.40;;;;;;;20.02;59.67;99869.81;10339192;28;20536;-67
2022/08/21 17:19:23;;;;;;;4.05;1.67;;;;;;;19.99;59.55;99870.03;10338956;28;20088;-67
2022/08/21 17:24:25;;;;;;;7.03;2.78;;;;;;;20.04;58.32;99873.19;10321358;28;20089;-67
2022/08/21 17:29:32;;;;;;;4.28;1.58;;;;;;;19.96;58.83;99866.72;10321251;28;20065;-68
2022/08/21 17:34:34;;;;;;;7.38;2.63;;;;;;;19.81;61.53;99872.22;10338615;28;20039;-68
2022/08/21 17:39:36;;;;;;;3.42;2.08;;;;;;;19.69;62.77;99870.44;10338432;28;20054;-68
2022/08/21 17:44:40;;;;;;;3.42;1.80;;;;;;;19.58;63.19;99878.34;10321482;28;20085;-67
2022/08/21 17:49:42;;;;;;;2.53;1.40;;;;;;;19.55;63.10;99879.41;10459661;22;20055;-73
2022/08/21 17:54:44;;;;;;;2.63;1.60;;;;;;;19.55;64.65;99876.72;10463088;28;20048;-73
2022/08/21 17:59:47;;;;;;;2.63;1.45;;;;;;;19.46;64.63;99874.72;10444770;28;20053;-74
2022/08/21 18:04:49;;;;;;;2.90;1.20;;;;;;;19.36;65.56;99885.19;10445719;28;20061;-74
2022/08/21 18:09:51;;;;;;;4.38;1.70;;;;;;;19.31;63.60;99881.16;10463328;28;20137;-74
2022/08/21 18:14:58;;;;;;;3.65;1.60;;;;;;;19.26;62.82;99885.97;10463482;28;20087;-74
2022/08/21 18:20:01;;;;;;;2.53;1.58;;;;;;;19.12;62.71;99892.22;10446302;28;20048;-74
2022/08/21 18:25:04;;;;;;;2.70;1.45;;;;;;;19.16;62.01;99891.91;10445478;28;20513;-75
2022/08/21 18:30:07;;;;;;;3.88;1.67;;;;;;;19.04;63.53;99894.59;10462825;28;20044;-74
2022/08/21 18:35:10;;;;;;;3.78;1.73;;;;;;;18.92;63.91;99888.28;10444201;28;20052;-75
2022/08/21 18:40:12;;;;;;;6.60;1.90;;;;;;;18.74;64.00;99897.53;10428453;28;20045;-75
2022/08/21 18:45:18;;;;;;;2.92;1.70;;;;;;;18.63;64.96;99890.22;10463367;28;20048;-75
2022/08/21 18:50:24;;;;;;;4.07;1.77;;;;;;;18.49;65.32;99899.13;10464580;28;20056;-74
2022/08/21 18:55:27;;;;;;;;;;;;;;;18.39;66.46;99906.03;10464334;28;20072;-74
2022/08/21 19:00:36;;;;;;;2.97;1.67;;;;;;;18.33;65.83;99911.78;10446579;28;19930;-76
2022/08/21 19:05:46;;;;;;;2.75;1.63;;;;;;;18.29;65.70;99916.44;10446655;28;20049;-75
2022/08/21 19:10:50;;;;;;;2.63;1.75;;;;;;;18.13;66.15;99918.38;10430189;28;20139;-74
2022/08/21 19:15:51;;;;;;;2.97;1.63;;;;;;;17.96;67.17;99922.13;10463053;28;20483;-76
2022/08/21 19:20:54;;;;;;;2.83;1.67;;;;;;;17.85;68.81;99919.31;10445579;28;20049;-75
2022/08/21 19:26:00;;;;;;;2.13;1.58;;;;;;;17.53;71.40;99919.50;10444885;28;20037;-74
2022/08/21 19:31:11;;;;;;;4.40;2.00;;;;;;;17.44;70.86;99914.72;10446055;28;20075;-74
2022/08/21 19:36:17;;;;;;;3.85;1.50;;;;;;;17.43;71.77;99913.03;10463737;28;20052;-74
2022/08/21 19:41:28;;;;;;;2.53;1.50;;;;;;;17.40;71.79;99918.56;10443334;28;20045;-74
2022/08/21 19:46:34;;;;;;;5.70;2.03;;;;;;;17.20;72.96;99918.91;10428758;28;20131;-75
2022/08/21 19:51:37;;;;;;;3.53;1.92;;;;;;;17.15;74.31;99925.34;10462413;28;20091;-74
2022/08/21 19:56:38;;;;;;;3.53;2.13;;;;;;;16.90;76.17;99922.47;10461038;28;20478;-75
2022/08/21 20:01:42;;;;;;;5.82;2.22;;;;;;;16.80;77.29;99919.50;10463404;28;20075;-75
2022/08/21 20:06:46;;;;;;;3.38;1.65;;;;;;;16.71;79.23;99919.16;10443890;28;20045;-75
2022/08/21 20:11:51;;;;;;;6.30;2.25;;;;;;;16.62;78.66;99916.09;10443888;28;20143;-75
2022/08/21 20:16:56;;;;;;;3.50;2.00;;;;;;;16.69;78.33;99910.41;10463622;28;20423;-75
2022/08/21 20:21:59;;;;;;;3.00;1.77;;;;;;;16.43;79.42;99912.81;10450691;28;20041;-75
2022/08/21 20:27:03;;;;;;;2.88;1.95;;;;;;;16.26;81.68;99910.28;10451309;28;20055;-76
2022/08/21 20:32:25;;;;;;;2.13;1.77;;;;;;;16.20;82.69;99908.81;10470056;28;20055;-75
2022/08/21 20:37:28;;;;;;;4.28;2.05;;;;;;;16.06;83.65;99912.25;10469254;28;20119;-75
2022/08/21 20:42:46;;;;;;;5.55;2.03;;;;;;;16.06;83.80;99908.75;10470630;28;20041;-75
2022/08/21 20:47:48;;;;;;;4.85;2.42;;;;;;;16.22;83.38;99906.09;10451249;28;20053;-75
2022/08/21 20:53:03;;;;;;;5.20;2.10;;;;;;;16.26;82.04;99907.63;10471556;28;20037;-74
2022/08/21 20:58:12;;;;;;;3.38;1.95;;;;;;;16.25;81.57;99906.78;10469484;28;20041;-74
2022/08/21 21:03:21;;;;;;;6.70;2.00;;;;;;;15.95;84.82;99901.41;10468534;28;20037;-75
2022/08/21 21:08:47;;;;;;;3.58;2.40;;;;;;;15.84;84.82;99901.13;10469093;28;20055;-74
2022/08/21 21:14:12;;;;;;;4.82;2.63;;;;;;;15.83;85.02;99907.38;10467584;28;20052;-74
2022/08/21 21:19:46;;;;;;;3.72;2.25;;;;;;;15.79;86.38;99904.03;10451008;28;20064;-74
2022/08/21 21:24:59;;;;;;;5.07;2.22;;;;;;;15.89;84.94;99904.38;10450325;28;20062;-75
2022/08/21 21:30:04;;;;;;;2.47;1.92;;;;;;;15.66;86.52;99912.75;10447538;28;20056;-75
2022/08/21 21:35:07;;;;;;;3.38;2.53;;;;;;;15.53;88.45;99909.88;10464863;28;20045;-75
2022/08/21 21:40:27;;;;;;;4.65;1.80;;;;;;;15.59;88.03;99917.50;10466011;28;20073;-75
2022/08/21 21:45:54;;;;;;;5.05;2.22;;;;;;;15.83;83.87;99908.22;10449141;28;20500;-74
2022/08/21 21:51:12;;;;;;;4.70;2.00;;;;;;;15.88;82.67;99907.97;10464695;28;20048;-74
2022/08/21 21:56:37;;;;;;;3.15;2.10;;;;;;;15.67;84.02;99912.69;10465037;28;20037;-75
2022/08/21 22:02:01;;;;;;;2.90;1.80;;;;;;;15.46;87.05;99919.09;10447734;28;20048;-75
2022/08/21 22:07:27;;;;;;;4.68;1.88;;;;;;;15.22;89.33;99919.47;10449840;28;20123;-76
2022/08/21 22:12:43;;;;;;;3.30;2.30;;;;;;;15.30;89.24;99937.59;10446961;28;20075;-74
2022/08/21 22:18:03;;;;;;;3.13;1.92;;;;;;;15.30;88.31;99933.16;10465420;28;20041;-75
2022/08/21 22:23:11;;;;;;;2.33;1.65;;;;;;;15.21;88.79;99924.84;10446581;28;20120;-75
2022/08/21 22:28:23;;;;;;;2.85;1.85;;;;;;;15.12;89.89;99928.81;10464771;28;20123;-74
2022/08/21 22:34:11;;;;;;;3.25;1.70;;;;;;;15.20;89.25;99920.50;10449597;28;20094;-74
2022/08/21 22:39:27;;;;;;;3.90;1.58;;;;;;;15.32;86.98;99920.69;10464370;28;20487;-74
2022/08/21 22:44:48;;;;;;;4.57;1.83;;;;;;;15.01;90.99;99923.25;10446095;28;20041;-74
2022/08/21 22:49:53;;;;;;;2.92;1.80;;;;;;;15.05;91.67;99917.72;10444837;28;20502;-74
2022/08/21 22:55:00;;;;;;;3.30;1.80;;;;;;;15.21;87.47;99920.41;10462905;28;20411;-74
2022/08/21 23:00:09;;;;;;;;;;;;;;;14.86;91.26;99919.59;10444242;28;20088;-74
2022/08/21 23:05:23;;;;;;;3.85;2.35;;;;;;;14.61;94.96;99927.94;10426800;28;19929;-74
2022/08/21 23:10:38;;;;;;;3.58;2.67;;;;;;;14.76;94.90;99921.00;10461632;28;20041;-74
2022/08/21 23:15:57;;;;;;;4.80;2.45;;;;;;;14.99;92.68;99923.31;10443281;28;20056;-74
2022/08/21 23:21:19;;;;;;;3.78;2.20;;;;;;;14.74;94.20;99918.44;10463749;28;20048;-75
2022/08/21 23:26:29;;;;;;;4.05;2.60;;;;;;;14.57;96.64;99924.56;10462618;28;20041;-74
2022/08/21 23:31:45;;;;;;;3.42;2.40;;;;;;;14.53;97.35;99933.59;10462486;28;20057;-74
2022/08/21 23:42:42;;;;;;;4.68;2.58;;;;;;;14.85;92.81;99928.47;10459908;28;20041;-73
2022/08/21 23:48:06;;;;;;;4.68;2.65;;;;;;;14.49;96.03;99926.72;10460306;28;20041;-74